Latest Weather Observations for Roseworthy

IDS60801

Issued at 3:01 pm CDT Saturday 10 December 2022 (issued every 10 minutes, with the page automatically refreshed every 10 minutes)

About weather observations | Map of weather stations | Latest weather observations for SA | Other Formats
Station Details ID: 023122 Name: ROSEWORTHY AWS Lat: -34.51 Lon: 138.68 Height: 65.0 m
Data from the previous 72 hours. | See also: Recent months at Roseworthy
Date/Time
CDT
Temp
°C
App
Temp
°C
Dew
Point
°C
Rel
Hum
%
Delta-T
°C
Wind Press
QNH
hPa
Press
MSL
hPa
Rain since
9am
mm
Dir  Spd
km/h
Gust
km/h
Spd
kts
Gust
kts
10/03:00pm 36.3 27.7 4.6 14 17.1 NNW 39 50 21 27 1005.9 1005.7 0.0
10/02:30pm 35.5 28.3 4.9 15 16.5 NNW 32 52 17 28 1006.0 1005.8 0.0
10/02:00pm 35.1 28.6 6.4 17 15.7 N 30 48 16 26 1006.5 1006.3 0.0
10/01:48pm 35.8 29.6 6.1 16 16.3 N 28 46 15 25 1006.8 1006.6 0.0
10/01:30pm 35.7 29.7 6.9 17 16.0 N 28 41 15 22 1006.8 1006.6 0.0
10/01:00pm 35.4 30.1 6.6 17 15.9 N 24 43 13 23 1007.4 1007.2 0.0
10/12:30pm 33.6 29.1 6.0 18 15.0 N 19 33 10 18 1007.8 1007.6 0.0
10/12:00pm 34.2 29.6 6.5 18 15.2 N 20 32 11 17 1008.3 1008.1 0.0
10/11:30am 32.8 29.2 6.9 20 14.2 N 15 22 8 12 1008.6 1008.4 0.0
10/11:00am 31.8 27.5 6.8 21 13.6 N 19 30 10 16 1009.1 1008.9 0.0
10/10:30am 32.0 27.7 7.0 21 13.6 N 19 26 10 14 1009.2 1009.0 0.0
10/10:00am 29.4 24.2 5.5 22 12.5 N 22 39 12 21 1009.8 1009.6 0.0
10/09:30am 28.7 23.6 6.1 24 11.9 NNE 22 30 12 16 1010.0 1009.8 0.0
10/09:00am 27.6 22.6 6.4 26 11.2 NNE 22 32 12 17 1010.5 1010.3 0.0
10/08:30am 23.9 18.5 6.2 32 9.1 NE 24 35 13 19 1010.5 1010.3 0.0
10/08:00am 22.0 15.6 5.4 34 8.3 NE 28 39 15 21 1010.4 1010.2 0.0
10/07:30am 19.7 13.0 5.4 39 7.0 ENE 30 37 16 20 1010.3 1010.1 0.0
10/07:00am 19.1 12.8 5.9 42 6.5 ENE 28 37 15 20 1010.3 1010.1 0.0
10/06:30am 18.3 12.2 6.5 46 5.9 NE 28 37 15 20 1010.1 1009.9 0.0
10/06:00am 18.7 11.8 4.8 40 6.7 NE 30 43 16 23 1010.0 1009.8 0.0
10/05:30am 18.3 11.4 4.8 41 6.5 NE 30 41 16 22 1010.0 1009.8 0.0
10/05:00am 18.4 11.5 4.6 40 6.6 NE 30 43 16 23 1010.0 1009.8 0.0
10/04:30am 18.1 11.9 4.3 40 6.6 NE 26 35 14 19 1010.2 1010.0 0.0
10/04:00am 18.1 11.5 4.3 40 6.6 NE 28 35 15 19 1010.0 1009.8 0.0
10/03:30am 18.1 11.9 4.3 40 6.6 NE 26 33 14 18 1010.1 1009.9 0.0
10/03:00am 18.1 12.0 4.7 41 6.4 NE 26 35 14 19 1010.1 1009.9 0.0
10/02:30am 18.5 11.6 4.7 40 6.6 NE 30 39 16 21 1010.5 1010.3 0.0
10/02:00am 18.9 12.0 4.7 39 6.8 ENE 30 44 16 24 1010.7 1010.5 0.0
10/01:30am 18.7 12.5 4.5 39 6.8 ENE 26 35 14 19 1011.1 1010.9 0.0
10/01:00am 19.0 12.4 4.4 38 7.0 ENE 28 43 15 23 1011.4 1011.2 0.0
10/12:30am 18.5 12.8 4.7 40 6.6 ENE 24 35 13 19 1011.6 1011.4 0.0
10/12:00am 19.1 13.0 4.8 39 6.9 ENE 26 35 14 19 1011.8 1011.6 0.0
 
Date/Time
CDT
Temp
°C
App
Temp
°C
Dew
Point
°C
Rel
Hum
%
Delta-T
°C
Wind Press
QNH
hPa
Press
MSL
hPa
Rain since
9am
mm
Dir  Spd
km/h
Gust
km/h
Spd
kts
Gust
kts
09/11:30pm 18.8 14.0 5.6 42 6.5 ENE 20 26 11 14 1011.9 1011.7 0.0
09/11:00pm 18.7 14.0 5.9 43 6.3 ENE 20 24 11 13 1012.0 1011.8 0.0
09/10:30pm 18.4 13.9 5.9 44 6.2 ENE 19 22 10 12 1012.0 1011.8 0.0
09/10:00pm 17.2 14.0 6.7 50 5.2 E 13 17 7 9 1012.2 1012.0 0.0
09/09:30pm 16.3 12.9 5.9 50 5.0 E 13 13 7 7 1012.0 1011.8 0.0
09/09:00pm 18.8 15.9 6.3 44 6.2 E 11 15 6 8 1011.7 1011.5 0.0
09/08:30pm 21.1 17.8 6.2 38 7.5 E 13 19 7 10 1011.7 1011.5 0.0
09/08:00pm 23.6 19.5 6.0 32 9.0 E 17 24 9 13 1011.5 1011.3 0.0
09/07:30pm 25.1 20.0 5.8 29 9.9 E 22 32 12 17 1011.3 1011.1 0.0
09/07:00pm 25.9 20.4 6.0 28 10.3 ESE 24 33 13 18 1011.1 1010.9 0.0
09/06:30pm 27.1 22.5 6.5 27 10.8 ESE 20 28 11 15 1011.0 1010.8 0.0
09/06:00pm 28.3 23.9 6.4 25 11.6 ESE 19 30 10 16 1010.8 1010.6 0.0
09/05:30pm 27.3 23.9 6.1 26 11.1 NNE 13 20 7 11 1011.0 1010.8 0.0
09/05:00pm 27.6 25.3 5.8 25 11.4 ESE 7 15 4 8 1011.3 1011.1 0.0
09/04:30pm 29.0 25.6 5.8 23 12.2 E 13 17 7 9 1011.6 1011.4 0.0
09/04:00pm 27.6 23.7 5.2 24 11.6 N 15 24 8 13 1012.0 1011.8 0.0
09/03:30pm 27.8 24.0 6.0 25 11.4 ENE 15 22 8 12 1012.2 1012.0 0.0
09/03:00pm 26.1 22.3 5.7 27 10.5 NE 15 30 8 16 1012.6 1012.4 0.0
09/02:30pm 27.4 23.3 6.2 26 11.1 ENE 17 26 9 14 1013.1 1012.9 0.0
09/02:00pm 26.4 22.2 5.9 27 10.6 NE 17 28 9 15 1013.7 1013.4 0.0
09/01:30pm 25.0 21.6 5.7 29 9.9 ENE 13 24 7 13 1014.1 1013.8 0.0
09/01:00pm 24.6 20.4 5.9 30 9.6 ENE 17 30 9 16 1014.5 1014.2 0.0
09/12:30pm 24.1 19.5 5.5 30 9.4 NE 19 32 10 17 1014.9 1014.6 0.0
09/12:00pm 23.6 18.7 5.0 30 9.3 ENE 20 35 11 19 1015.2 1014.9 0.0
09/11:30am 22.8 16.4 5.3 32 8.8 ENE 28 39 15 21 1015.6 1015.4 0.0
09/11:00am 22.4 16.1 5.8 34 8.4 ENE 28 39 15 21 1015.8 1015.6 0.0
09/10:30am 20.3 13.8 4.8 36 7.6 ENE 28 41 15 22 1015.8 1015.6 0.0
09/10:00am 19.1 11.7 4.8 39 6.9 ENE 33 43 18 23 1016.1 1015.9 0.0
09/09:30am 17.0 9.5 4.7 44 5.8 ENE 33 44 18 24 1016.6 1016.4 0.0
09/09:00am 15.2 7.8 4.0 47 5.2 ENE 32 43 17 23 1017.4 1017.2 0.0
09/08:30am 15.0 8.0 4.1 48 5.0 E 30 43 16 23 1017.5 1017.3 0.0
09/08:00am 14.3 8.2 4.6 52 4.5 E 26 33 14 18 1017.3 1017.1 0.0
09/07:30am 13.2 6.6 4.4 55 4.0 E 28 39 15 21 1016.8 1016.6 0.0
09/07:00am 13.1 6.5 4.0 54 4.1 E 28 39 15 21 1016.0 1015.8 0.0
09/06:30am 13.0 7.2 4.4 56 3.9 E 24 33 13 18 1015.5 1015.3 0.0
09/06:00am 13.0 7.9 4.2 55 4.0 E 20 30 11 16 1015.6 1015.4 0.0
09/05:30am 12.9 7.1 4.3 56 3.9 E 24 35 13 19 1015.2 1014.9 0.0
09/05:00am 13.0 6.8 4.4 56 3.9 E 26 35 14 19 1014.2 1013.9 0.0
09/04:30am 13.0 7.3 4.7 57 3.8 E 24 33 13 18 1014.0 1013.7 0.0
09/04:00am 12.7 7.9 4.9 59 3.6 E 19 28 10 15 1014.3 1014.0 0.0
09/03:30am 12.7 7.8 5.1 60 3.5 E 20 28 11 15 1014.7 1014.4 0.0
09/03:00am 12.5 8.2 5.4 62 3.3 E 17 24 9 13 1015.3 1015.1 0.0
09/02:30am 11.8 8.4 5.9 67 2.8 E 13 17 7 9 1015.6 1015.4 0.0
09/02:00am 11.8 8.0 5.9 67 2.8 E 15 20 8 11 1015.6 1015.4 0.0
09/01:30am 11.1 7.7 6.0 71 2.4 E 13 20 7 11 1016.0 1015.8 0.0
09/01:00am 11.0 8.3 5.7 70 2.5 ESE 9 15 5 8 1017.1 1016.9 0.0
09/12:30am 10.9 7.8 5.4 69 2.5 ESE 11 15 6 8 1017.1 1016.9 0.0
09/12:00am 11.2 8.1 5.7 69 2.5 ESE 11 15 6 8 1017.3 1017.1 0.0
 
Date/Time
CDT
Temp
°C
App
Temp
°C
Dew
Point
°C
Rel
Hum
%
Delta-T
°C
Wind Press
QNH
hPa
Press
MSL
hPa
Rain since
9am
mm
Dir  Spd
km/h
Gust
km/h
Spd
kts
Gust
kts
08/11:30pm 11.2 8.1 5.5 68 2.6 SE 11 17 6 9 1017.3 1017.1 0.0
08/11:00pm 11.6 7.7 5.3 65 2.9 SE 15 20 8 11 1017.6 1017.4 0.0
08/10:30pm 12.2 8.3 5.4 63 3.2 SE 15 19 8 10 1017.9 1017.7 0.0
08/10:00pm 12.5 8.6 5.2 61 3.4 SE 15 19 8 10 1018.0 1017.8 0.0
08/09:30pm 13.5 9.2 5.4 58 3.8 SE 17 22 9 12 1017.8 1017.6 0.0
08/09:00pm 14.0 10.2 5.6 57 4.0 SE 15 20 8 11 1017.5 1017.3 0.0
08/08:30pm 15.1 11.0 6.1 55 4.3 SE 17 26 9 14 1017.2 1017.0 0.0
08/08:00pm 16.2 12.1 6.3 52 4.8 SSE 17 24 9 13 1017.0 1016.8 0.0
08/07:30pm 17.7 12.7 6.3 47 5.6 SE 22 32 12 17 1016.0 1015.8 0.0
08/07:00pm 19.0 14.0 6.5 44 6.3 SE 22 28 12 15 1015.5 1015.3 0.0
08/06:30pm 19.9 15.0 7.0 43 6.5 SE 22 33 12 18 1015.2 1014.9 0.0
08/06:00pm 21.8 17.8 6.5 37 7.8 S 17 28 9 15 1014.7 1014.4 0.0
08/05:30pm 20.6 16.5 7.9 44 6.6 SW 19 28 10 15 1014.6 1014.3 0.0
08/05:00pm 21.3 16.3 7.9 42 7.0 SW 24 37 13 20 1015.3 1015.1 0.0
08/04:30pm 20.5 15.1 6.5 40 7.1 SSW 24 35 13 19 1015.9 1015.7 0.0
08/04:00pm 21.2 15.6 7.1 40 7.2 SSW 26 35 14 19 1016.2 1016.0 0.0
08/03:30pm 20.3 14.5 6.3 40 7.0 SSW 26 37 14 20 1016.2 1016.0 0.0
08/03:00pm 20.7 15.3 6.3 39 7.2 SW 24 35 13 19 1016.9 1016.7 0.0
08/02:30pm 20.6 15.2 6.2 39 7.2 SW 24 33 13 18 1017.2 1017.0 0.0
08/02:00pm 21.4 16.9 6.9 39 7.4 WSW 20 32 11 17 1017.5 1017.3 0.0
08/01:30pm 21.3 18.2 5.6 36 7.8 SSE 11 20 6 11 1017.3 1017.1 0.0
08/01:00pm 20.8 16.9 5.2 36 7.7 S 15 22 8 12 1017.7 1017.5 0.0
08/12:30pm 19.4 14.9 4.0 36 7.3 SSW 17 28 9 15 1017.9 1017.7 0.0
08/12:00pm 19.7 16.3 3.8 35 7.6 SE 11 22 6 12 1018.2 1018.0 0.0
08/11:30am 19.6 15.8 4.1 36 7.4 SSE 13 24 7 13 1018.4 1018.2 0.0
08/11:00am 18.6 13.9 2.9 35 7.3 SSE 17 30 9 16 1018.5 1018.3 0.0
08/10:30am 18.2 13.3 4.0 39 6.7 SSE 19 28 10 15 1018.7 1018.5 0.0
08/10:00am 16.3 11.6 3.4 42 5.9 S 17 24 9 13 1019.2 1019.0 0.0
08/09:30am 16.5 12.0 4.2 44 5.8 S 17 24 9 13 1019.1 1018.9 0.0
08/09:00am 16.6 12.5 4.3 44 5.8 SSE 15 22 8 12 1019.2 1019.0 0.0
08/08:30am 15.4 11.5 5.3 51 4.8 SE 15 22 8 12 1019.1 1018.9 0.0
08/08:00am 12.5 8.8 6.1 65 3.0 ESE 15 20 8 11 1018.8 1018.6 0.0
08/07:30am 9.7 6.3 5.7 76 1.8 E 13 15 7 8 1018.3 1018.1 0.0
08/07:00am 8.2 5.2 6.0 86 1.0 ENE 11 13 6 7 1018.1 1017.9 0.0
08/06:30am 5.3 2.3 4.1 92 0.5 ENE 9 11 5 6 1017.9 1017.7 0.0
08/06:00am 4.2 0.6 2.7 90 0.6 ENE 11 13 6 7 1017.5 1017.3 0.0
08/05:30am 3.7 0.4 2.2 90 0.6 ENE 9 9 5 5 1017.2 1017.0 0.0
08/05:00am 3.9 0.9 2.3 89 0.6 ENE 7 7 4 4 1017.0 1016.8 0.0
08/04:30am 4.2 1.2 2.2 87 0.8 NNE 7 9 4 5 1017.0 1016.8 0.0
08/04:00am 4.9 2.3 3.1 88 0.7 N 6 7 3 4 1017.1 1016.9 0.0
08/03:30am 4.2 1.5 2.4 88 0.7 NNE 6 7 3 4 1017.1 1016.9 0.0
08/03:00am 4.1 2.4 1.8 85 0.9 CALM 0 0 0 0 1016.8 1016.6 0.0
08/02:30am 4.5 2.9 2.2 85 0.9 CALM 0 0 0 0 1016.8 1016.6 0.0
08/02:00am 4.7 3.0 2.1 83 1.0 CALM 0 0 0 0 1017.0 1016.8 0.0
08/01:30am 5.5 3.9 2.5 81 1.2 CALM 0 0 0 0 1017.2 1017.0 0.0
08/01:00am 6.2 4.6 2.7 78 1.4 CALM 0 0 0 0 1017.3 1017.1 0.0
08/12:30am 6.7 5.1 2.2 73 1.8 CALM 0 0 0 0 1017.4 1017.2 0.0
08/12:00am 9.6 6.9 3.6 66 2.6 S 7 9 4 5 1017.5 1017.3 0.0
 
Date/Time
CDT
Temp
°C
App
Temp
°C
Dew
Point
°C
Rel
Hum
%
Delta-T
°C
Wind Press
QNH
hPa
Press
MSL
hPa
Rain since
9am
mm
Dir  Spd
km/h
Gust
km/h
Spd
kts
Gust
kts
07/11:30pm 11.1 7.3 4.1 62 3.1 S 13 17 7 9 1017.5 1017.3 0.0
07/11:00pm 11.3 7.9 4.1 61 3.2 S 11 15 6 8 1017.2 1017.0 0.0
07/10:30pm 12.3 8.4 3.5 55 3.9 S 13 20 7 11 1017.1 1016.9 0.0
07/10:00pm 13.0 8.0 3.4 52 4.3 S 19 28 10 15 1016.6 1016.4 0.0
07/09:30pm 13.3 8.3 4.7 56 4.0 S 20 26 11 14 1016.1 1015.9 0.0
07/09:00pm 13.9 9.2 6.0 59 3.8 SSW 20 32 11 17 1015.3 1015.1 0.0
07/08:30pm 14.6 9.2 6.2 57 4.0 SW 24 35 13 19 1014.8 1014.5 0.0
07/08:00pm 15.3 8.7 6.1 54 4.4 SW 30 43 16 23 1014.5 1014.2 0.0
07/07:30pm 16.6 10.1 6.4 51 5.0 SSW 30 43 16 23 1014.1 1013.8 0.0
07/07:00pm 17.5 11.1 8.6 56 4.6 SW 32 44 17 24 1013.7 1013.4 0.0
07/06:30pm 18.3 11.7 7.7 50 5.4 SSW 32 44 17 24 1012.8 1012.6 0.0
07/06:00pm 18.7 12.1 8.4 51 5.3 SW 33 46 18 25 1012.4 1012.2 0.0
07/05:30pm 19.3 13.1 8.0 48 5.8 SW 30 46 16 25 1012.4 1012.2 0.0
07/05:00pm 19.0 12.5 8.9 52 5.3 SSW 33 44 18 24 1012.3 1012.1 0.0
07/04:30pm 20.1 13.7 8.4 47 6.1 SW 32 44 17 24 1012.2 1012.0 0.0
07/04:00pm 21.0 14.7 7.3 41 7.0 SW 30 48 16 26 1012.0 1011.8 0.0
07/03:43pm 21.2 14.8 7.1 40 7.2 SW 30 48 16 26 1011.8 1011.6 0.0
07/03:30pm 20.8 14.0 6.7 40 7.2 SW 32 43 17 23 1011.8 1011.6 0.0
07/03:06pm 21.0 14.0 5.8 37 7.6 SW 32 50 17 27 1011.8 1011.6 0.0

Other formats

Comma delimited format used in spreadsheet applications
http://www.bom.gov.au/fwo/IDS60801/IDS60801.95671.axf

JavaScript Object Notation format (JSON) in row-major order
http://www.bom.gov.au/fwo/IDS60801/IDS60801.95671.json

Data quality

Most of these data are generated automatically and are frequently updated. Quality checks on data are not normally performed. It is possible for incorrect values to appear. Refer to information at About Latest Weather Observations and please check the disclaimer before using these data.